createdAt,value
2019-05-17T00:00:16.741Z,983.52
2019-05-17T00:01:16.598Z,983.56
2019-05-17T00:02:17.451Z,983.57
2019-05-17T00:03:16.997Z,983.44
2019-05-17T00:04:16.579Z,983.47
2019-05-17T00:05:17.688Z,983.51
2019-05-17T00:06:16.835Z,983.46
2019-05-17T00:07:16.676Z,983.44
2019-05-17T00:08:16.453Z,983.43
2019-05-17T00:09:17.540Z,983.41
2019-05-17T00:10:17.236Z,983.37
2019-05-17T00:11:16.772Z,983.36
2019-05-17T00:12:16.579Z,983.35
2019-05-17T00:13:17.323Z,983.37
2019-05-17T00:14:16.716Z,983.35
2019-05-17T00:15:16.892Z,983.36
2019-05-17T00:16:17.403Z,983.34
2019-05-17T00:17:17.309Z,983.33
2019-05-17T00:18:17.094Z,983.3
2019-05-17T00:19:16.874Z,983.29
2019-05-17T00:20:17.248Z,983.27
2019-05-17T00:21:16.888Z,983.28
2019-05-17T00:22:16.664Z,983.26
2019-05-17T00:23:17.353Z,983.24
2019-05-17T00:24:15.444Z,983.24
2019-05-17T00:25:16.597Z,983.23
2019-05-17T00:26:16.380Z,983.22
2019-05-17T00:27:17.175Z,983.26
2019-05-17T00:28:16.387Z,983.21
2019-05-17T00:29:17.248Z,983.2
2019-05-17T00:30:17.493Z,983.23
2019-05-17T00:31:17.120Z,983.19
2019-05-17T00:32:17.055Z,983.19
2019-05-17T00:33:16.907Z,983.15
2019-05-17T00:34:16.758Z,983.18
2019-05-17T00:35:17.544Z,983.14
2019-05-17T00:36:17.605Z,983.11
2019-05-17T00:37:17.329Z,983.17
2019-05-17T00:38:16.863Z,983.17
2019-05-17T00:39:16.630Z,983.17
2019-05-17T00:40:16.563Z,983.15
2019-05-17T00:41:17.468Z,983.15
2019-05-17T00:42:16.985Z,983.15
2019-05-17T00:43:16.871Z,983.12
2019-05-17T00:44:16.722Z,983.1
2019-05-17T00:45:17.287Z,983.09
2019-05-17T00:46:17.198Z,983.11
2019-05-17T00:47:17.099Z,983.06
2019-05-17T00:48:17.102Z,983.08
2019-05-17T00:49:17.058Z,983.08
2019-05-17T00:50:16.954Z,983.08
2019-05-17T00:51:16.669Z,983.08
2019-05-17T00:52:16.655Z,983.07
2019-05-17T00:53:16.342Z,983.07
2019-05-17T00:54:17.241Z,983.06
2019-05-17T00:55:17.283Z,983.04
2019-05-17T00:56:17.082Z,983.05
2019-05-17T00:57:16.557Z,983.02
2019-05-17T00:58:17.172Z,983
2019-05-17T00:59:17.005Z,983.01
2019-05-17T01:00:17.012Z,983.01
2019-05-17T01:01:16.453Z,983
2019-05-17T01:02:16.285Z,982.96
2019-05-17T01:03:16.229Z,982.98
2019-05-17T01:04:17.257Z,982.95
2019-05-17T01:05:17.029Z,982.95
2019-05-17T01:06:16.888Z,982.93
2019-05-17T01:07:17.537Z,982.94
2019-05-17T01:08:17.282Z,982.9
2019-05-17T01:09:16.973Z,982.88
2019-05-17T01:10:16.601Z,982.92
2019-05-17T01:11:16.469Z,982.91
2019-05-17T01:12:16.406Z,982.88
2019-05-17T01:13:17.114Z,982.9
2019-05-17T01:14:17.325Z,982.89
2019-05-17T01:15:16.716Z,982.88
2019-05-17T01:16:16.583Z,982.89
2019-05-17T01:17:16.505Z,982.88
2019-05-17T01:18:16.222Z,982.88
2019-05-17T01:19:16.354Z,982.87
2019-05-17T01:20:17.136Z,982.87
2019-05-17T01:21:16.847Z,982.85
2019-05-17T01:22:16.837Z,982.82
2019-05-17T01:23:16.607Z,982.79
2019-05-17T01:24:17.194Z,982.79
2019-05-17T01:25:17.053Z,982.78
2019-05-17T01:26:15.062Z,982.79
2019-05-17T01:27:17.139Z,982.79
2019-05-17T01:28:16.364Z,982.77
2019-05-17T01:29:17.276Z,982.79
2019-05-17T01:30:17.252Z,982.79
2019-05-17T01:31:17.080Z,982.78
2019-05-17T01:32:17.111Z,982.76
2019-05-17T01:33:17.064Z,982.8
2019-05-17T01:34:16.594Z,982.82
2019-05-17T01:35:16.687Z,982.76
2019-05-17T01:36:17.132Z,982.75
2019-05-17T01:37:17.120Z,982.73
2019-05-17T01:38:17.528Z,982.7
2019-05-17T01:39:18.562Z,982.74
2019-05-17T01:40:17.308Z,982.7
2019-05-17T01:41:17.164Z,982.75
2019-05-17T01:42:17.011Z,982.72
2019-05-17T01:43:16.615Z,982.74
2019-05-17T01:44:16.659Z,982.74
2019-05-17T01:45:16.603Z,982.73
2019-05-17T01:46:17.018Z,982.75
2019-05-17T01:47:16.614Z,982.74
2019-05-17T01:48:16.368Z,982.76
2019-05-17T01:49:16.415Z,982.78
2019-05-17T01:50:17.236Z,982.72
2019-05-17T01:51:16.875Z,982.76
2019-05-17T01:52:16.735Z,982.72
2019-05-17T01:53:16.566Z,982.73
2019-05-17T01:54:17.316Z,982.72
2019-05-17T01:55:17.131Z,982.75
2019-05-17T01:56:16.807Z,982.75
2019-05-17T01:57:16.801Z,982.7
2019-05-17T01:58:16.360Z,982.76
2019-05-17T01:59:17.103Z,982.73
2019-05-17T02:00:17.257Z,982.74
2019-05-17T02:01:16.934Z,982.75
2019-05-17T02:02:16.379Z,982.76
2019-05-17T02:03:17.175Z,982.74
2019-05-17T02:04:17.211Z,982.74
2019-05-17T02:05:17.176Z,982.74
2019-05-17T02:06:16.499Z,982.77
2019-05-17T02:07:17.153Z,982.75
2019-05-17T02:08:16.914Z,982.73
2019-05-17T02:09:20.566Z,982.74
2019-05-17T02:10:16.706Z,982.73
2019-05-17T02:11:18.182Z,982.74
2019-05-17T02:12:17.185Z,982.72
2019-05-17T02:13:16.408Z,982.72
2019-05-17T02:14:16.504Z,982.74
2019-05-17T02:15:16.407Z,982.75
2019-05-17T02:16:16.494Z,982.72
2019-05-17T02:17:14.738Z,982.71
2019-05-17T02:18:14.747Z,982.71
2019-05-17T02:19:14.730Z,982.71
2019-05-17T02:20:16.837Z,982.7
2019-05-17T02:21:16.756Z,982.7
2019-05-17T02:22:16.694Z,982.68
2019-05-17T02:23:14.702Z,982.67
2019-05-17T02:24:16.860Z,982.7
2019-05-17T02:25:16.689Z,982.71
2019-05-17T02:26:17.174Z,982.65
2019-05-17T02:27:14.675Z,982.66
2019-05-17T02:28:14.666Z,982.69
2019-05-17T02:29:14.671Z,982.66
2019-05-17T02:30:14.887Z,982.68
2019-05-17T02:31:14.651Z,982.68
2019-05-17T02:32:14.659Z,982.67
2019-05-17T02:33:14.637Z,982.69
2019-05-17T02:34:14.633Z,982.65
2019-05-17T02:35:15.137Z,982.63
2019-05-17T02:36:14.631Z,982.64
2019-05-17T02:37:14.621Z,982.61
2019-05-17T02:38:14.605Z,982.6
2019-05-17T02:39:14.597Z,982.64
2019-05-17T02:40:15.243Z,982.63
2019-05-17T02:41:14.599Z,982.63
2019-05-17T02:42:14.574Z,982.61
2019-05-17T02:43:14.567Z,982.59
2019-05-17T02:44:14.562Z,982.61
2019-05-17T02:45:14.569Z,982.61
2019-05-17T02:46:14.547Z,982.55
2019-05-17T02:47:14.542Z,982.55
2019-05-17T02:48:14.535Z,982.6
2019-05-17T02:49:14.536Z,982.58
2019-05-17T02:50:15.634Z,982.53
2019-05-17T02:51:14.523Z,982.53
2019-05-17T02:52:14.509Z,982.49
2019-05-17T02:53:14.504Z,982.54
2019-05-17T02:54:14.493Z,982.51
2019-05-17T02:55:14.489Z,982.53
2019-05-17T02:56:14.483Z,982.53
2019-05-17T02:57:14.534Z,982.54
2019-05-17T02:58:14.475Z,982.54
2019-05-17T02:59:14.477Z,982.53
2019-05-17T03:00:14.500Z,982.56
2019-05-17T03:01:14.447Z,982.55
2019-05-17T03:02:14.441Z,982.59
2019-05-17T03:03:14.434Z,982.55
2019-05-17T03:04:14.425Z,982.57
2019-05-17T03:05:14.418Z,982.56
2019-05-17T03:06:14.424Z,982.55
2019-05-17T03:07:14.405Z,982.59
2019-05-17T03:08:14.402Z,982.56
2019-05-17T03:09:14.394Z,982.54
2019-05-17T03:10:23.504Z,982.56
2019-05-17T03:11:14.378Z,982.54
2019-05-17T03:12:14.374Z,982.52
2019-05-17T03:13:17.817Z,982.52
2019-05-17T03:14:14.358Z,982.55
2019-05-17T03:15:14.351Z,982.49
2019-05-17T03:16:14.942Z,982.45
2019-05-17T03:17:14.346Z,982.47
2019-05-17T03:18:14.333Z,982.43
2019-05-17T03:19:14.323Z,982.41
2019-05-17T03:20:14.317Z,982.4
2019-05-17T03:21:14.367Z,982.42
2019-05-17T03:22:14.306Z,982.43
2019-05-17T03:23:14.296Z,982.42
2019-05-17T03:24:14.289Z,982.42
2019-05-17T03:25:14.596Z,982.41
2019-05-17T03:26:14.275Z,982.44
2019-05-17T03:27:14.270Z,982.44
2019-05-17T03:28:14.259Z,982.39
2019-05-17T03:29:14.261Z,982.42
2019-05-17T03:30:18.672Z,982.43
2019-05-17T03:31:16.502Z,982.49
2019-05-17T03:32:16.922Z,982.45
2019-05-17T03:33:15.842Z,982.46
2019-05-17T03:34:16.571Z,982.44
2019-05-17T03:35:16.323Z,982.46
2019-05-17T03:36:16.642Z,982.48
2019-05-17T03:37:15.912Z,982.48
2019-05-17T03:38:14.319Z,982.5
2019-05-17T03:39:14.190Z,982.5
2019-05-17T03:40:30.107Z,982.51
2019-05-17T03:41:34.591Z,982.53
2019-05-17T03:42:34.585Z,982.46
2019-05-17T03:43:35.277Z,982.49
2019-05-17T03:44:34.588Z,982.46
2019-05-17T03:45:34.562Z,982.49
2019-05-17T03:46:34.554Z,982.5
2019-05-17T03:47:34.558Z,982.52
2019-05-17T03:48:34.570Z,982.51
2019-05-17T03:49:36.785Z,982.51
2019-05-17T03:50:34.528Z,982.5
2019-05-17T03:51:34.566Z,982.48
2019-05-17T03:52:34.517Z,982.52
2019-05-17T03:53:34.509Z,982.5
2019-05-17T03:54:34.501Z,982.51
2019-05-17T03:55:34.503Z,982.48
2019-05-17T03:56:34.483Z,982.52
2019-05-17T03:57:34.476Z,982.49
2019-05-17T03:58:34.467Z,982.44
2019-05-17T03:59:34.467Z,982.5
2019-05-17T04:00:35.526Z,982.46
2019-05-17T04:01:34.455Z,982.49
2019-05-17T04:02:34.441Z,982.5
2019-05-17T04:03:35.447Z,982.5
2019-05-17T04:04:34.426Z,982.53
2019-05-17T04:05:34.419Z,982.54
2019-05-17T04:06:34.414Z,982.5
2019-05-17T04:07:34.410Z,982.52
2019-05-17T04:08:34.404Z,982.5
2019-05-17T04:09:37.588Z,982.57
2019-05-17T04:10:34.390Z,982.58
2019-05-17T04:11:36.327Z,982.62
2019-05-17T04:12:34.377Z,982.68
2019-05-17T04:13:34.369Z,982.65
2019-05-17T04:14:34.358Z,982.7
2019-05-17T04:15:34.358Z,982.71
2019-05-17T04:16:34.353Z,982.72
2019-05-17T04:17:34.342Z,982.74
2019-05-17T04:18:34.332Z,982.69
2019-05-17T04:19:34.331Z,982.7
2019-05-17T04:20:34.343Z,982.7
2019-05-17T04:21:34.521Z,982.7
2019-05-17T04:22:34.316Z,982.71
2019-05-17T04:23:34.334Z,982.7
2019-05-17T04:24:34.301Z,982.72
2019-05-17T04:25:34.293Z,982.73
2019-05-17T04:26:34.288Z,982.72
2019-05-17T04:27:34.289Z,982.73
2019-05-17T04:28:34.283Z,982.71
2019-05-17T04:29:34.278Z,982.74
2019-05-17T04:30:34.277Z,982.7
2019-05-17T04:31:35.120Z,982.7
2019-05-17T04:32:34.274Z,982.71
2019-05-17T04:33:34.262Z,982.71
2019-05-17T04:34:34.278Z,982.71
2019-05-17T04:35:34.253Z,982.76
2019-05-17T04:36:34.305Z,982.72
2019-05-17T04:37:38.188Z,982.73
2019-05-17T04:38:34.254Z,982.71
2019-05-17T04:39:34.241Z,982.74
2019-05-17T04:40:34.411Z,982.7
2019-05-17T04:41:44.844Z,982.65
2019-05-17T04:42:34.233Z,982.68
2019-05-17T04:43:34.234Z,982.65
2019-05-17T04:44:34.230Z,982.7
2019-05-17T04:45:34.226Z,982.7
2019-05-17T04:46:34.226Z,982.69
2019-05-17T04:47:34.225Z,982.69
2019-05-17T04:48:34.223Z,982.6
2019-05-17T04:49:34.219Z,982.63
2019-05-17T04:50:34.224Z,982.64
2019-05-17T04:51:34.267Z,982.65
2019-05-17T04:52:34.226Z,982.61
2019-05-17T04:53:34.216Z,982.59
2019-05-17T04:54:34.222Z,982.61
2019-05-17T04:55:34.551Z,982.58
2019-05-17T04:56:34.214Z,982.56
2019-05-17T04:57:34.233Z,982.58
2019-05-17T04:58:34.213Z,982.58
2019-05-17T04:59:34.263Z,982.56
2019-05-17T05:00:34.506Z,982.55
2019-05-17T05:01:34.224Z,982.56
2019-05-17T05:02:34.210Z,982.57
2019-05-17T05:03:34.240Z,982.56
2019-05-17T05:04:38.228Z,982.59
2019-05-17T05:05:34.208Z,982.54
2019-05-17T05:06:34.209Z,982.56
2019-05-17T05:07:34.207Z,982.59
2019-05-17T05:08:34.207Z,982.63
2019-05-17T05:09:34.209Z,982.64
2019-05-17T05:10:38.186Z,982.59
2019-05-17T05:11:34.208Z,982.64
2019-05-17T05:12:34.207Z,982.62
2019-05-17T05:13:34.217Z,982.62
2019-05-17T05:14:34.210Z,982.62
2019-05-17T05:15:34.206Z,982.63
2019-05-17T05:16:34.232Z,982.62
2019-05-17T05:17:34.206Z,982.58
2019-05-17T05:18:34.209Z,982.56
2019-05-17T05:19:34.234Z,982.6
2019-05-17T05:20:34.209Z,982.55
2019-05-17T05:21:34.208Z,982.53
2019-05-17T05:22:34.211Z,982.54
2019-05-17T05:23:34.222Z,982.54
2019-05-17T05:24:34.211Z,982.55
2019-05-17T05:25:34.214Z,982.51
2019-05-17T05:26:34.214Z,982.5
2019-05-17T05:27:34.220Z,982.46
2019-05-17T05:28:34.225Z,982.47
2019-05-17T05:29:34.218Z,982.46
2019-05-17T05:30:34.220Z,982.47
2019-05-17T05:31:34.292Z,982.41
2019-05-17T05:32:34.225Z,982.41
2019-05-17T05:33:34.226Z,982.45
2019-05-17T05:34:34.228Z,982.41
2019-05-17T05:35:34.235Z,982.46
2019-05-17T05:36:34.234Z,982.43
2019-05-17T05:37:34.234Z,982.39
2019-05-17T05:38:34.240Z,982.42
2019-05-17T05:39:34.241Z,982.44
2019-05-17T05:40:34.240Z,982.41
2019-05-17T05:41:34.246Z,982.39
2019-05-17T05:42:34.254Z,982.39
2019-05-17T05:43:34.258Z,982.38
2019-05-17T05:44:34.252Z,982.34
2019-05-17T05:45:34.254Z,982.31
2019-05-17T05:46:34.256Z,982.32
2019-05-17T05:47:34.276Z,982.32
2019-05-17T05:48:34.304Z,982.32
2019-05-17T05:49:34.278Z,982.33
2019-05-17T05:50:34.280Z,982.23
2019-05-17T05:51:34.275Z,982.23
2019-05-17T05:52:34.281Z,982.22
2019-05-17T05:53:34.288Z,982.25
2019-05-17T05:54:34.283Z,982.3
2019-05-17T05:55:34.284Z,982.29
2019-05-17T05:56:34.290Z,982.32
2019-05-17T05:57:34.291Z,982.31
2019-05-17T05:58:34.295Z,982.3
2019-05-17T05:59:35.439Z,982.35
2019-05-17T06:00:34.300Z,982.33
2019-05-17T06:01:34.374Z,982.34
2019-05-17T06:02:34.313Z,982.29
2019-05-17T06:03:34.311Z,982.27
2019-05-17T06:04:34.318Z,982.27
2019-05-17T06:05:34.321Z,982.26
2019-05-17T06:06:34.322Z,982.24
2019-05-17T06:07:34.337Z,982.22
2019-05-17T06:08:34.329Z,982.21
2019-05-17T06:09:34.333Z,982.19
2019-05-17T06:10:34.342Z,982.21
2019-05-17T06:11:34.344Z,982.22
2019-05-17T06:12:34.350Z,982.2
2019-05-17T06:13:34.352Z,982.24
2019-05-17T06:14:34.356Z,982.25
2019-05-17T06:15:34.360Z,982.22
2019-05-17T06:16:34.362Z,982.22
2019-05-17T06:17:34.369Z,982.24
2019-05-17T06:18:34.373Z,982.19
2019-05-17T06:19:34.379Z,982.18
2019-05-17T06:20:34.380Z,982.11
2019-05-17T06:21:34.391Z,982.13
2019-05-17T06:22:34.398Z,982.18
2019-05-17T06:23:34.445Z,982.14
2019-05-17T06:24:34.399Z,982.12
2019-05-17T06:25:34.405Z,982.14
2019-05-17T06:26:34.408Z,982.11
2019-05-17T06:27:34.409Z,982.1
2019-05-17T06:28:34.417Z,982.1
2019-05-17T06:29:34.418Z,982.09
2019-05-17T06:30:34.424Z,982.12
2019-05-17T06:31:36.945Z,982.07
2019-05-17T06:32:34.431Z,982.09
2019-05-17T06:33:34.997Z,982.08
2019-05-17T06:34:34.443Z,982.1
2019-05-17T06:35:34.448Z,982.08
2019-05-17T06:36:34.459Z,982.03
2019-05-17T06:37:34.460Z,982.05
2019-05-17T06:38:34.515Z,982.06
2019-05-17T06:39:34.465Z,982.03
2019-05-17T06:40:34.470Z,982.05
2019-05-17T06:41:34.475Z,982.09
2019-05-17T06:42:40.241Z,982.05
2019-05-17T06:43:34.484Z,982.01
2019-05-17T06:44:34.486Z,981.98
2019-05-17T06:45:34.493Z,981.98
2019-05-17T06:46:34.498Z,981.97
2019-05-17T06:47:34.502Z,981.94
2019-05-17T06:48:34.514Z,981.97
2019-05-17T06:49:34.512Z,981.97
2019-05-17T06:50:34.531Z,981.95
2019-05-17T06:51:34.526Z,981.89
2019-05-17T06:52:34.530Z,981.86
2019-05-17T06:53:34.735Z,981.9
2019-05-17T06:54:34.539Z,981.91
2019-05-17T06:55:34.555Z,981.88
2019-05-17T06:56:34.560Z,981.88
2019-05-17T06:57:34.556Z,981.89
2019-05-17T06:58:34.564Z,981.85
2019-05-17T06:59:34.567Z,981.9
2019-05-17T07:00:34.572Z,981.84
2019-05-17T07:01:34.579Z,981.84
2019-05-17T07:02:36.097Z,981.77
2019-05-17T07:03:34.594Z,981.81
2019-05-17T07:04:34.592Z,981.83
2019-05-17T07:05:34.597Z,981.79
2019-05-17T07:06:34.601Z,981.75
2019-05-17T07:07:34.607Z,981.71
2019-05-17T07:08:34.662Z,981.71
2019-05-17T07:09:36.069Z,981.7
2019-05-17T07:10:34.635Z,981.7
2019-05-17T07:11:34.628Z,981.71
2019-05-17T07:12:34.632Z,981.72
2019-05-17T07:13:34.636Z,981.76
2019-05-17T07:14:34.639Z,981.74
2019-05-17T07:15:44.486Z,981.75
2019-05-17T07:16:34.668Z,981.71
2019-05-17T07:17:34.664Z,981.74
2019-05-17T07:18:34.671Z,981.69
2019-05-17T07:19:34.671Z,981.67
2019-05-17T07:20:34.665Z,981.64
2019-05-17T07:21:34.668Z,981.66
2019-05-17T07:22:34.669Z,981.6
2019-05-17T07:23:34.672Z,981.63
2019-05-17T07:24:34.682Z,981.62
2019-05-17T07:25:34.681Z,981.63
2019-05-17T07:26:34.685Z,981.59
2019-05-17T07:27:41.218Z,981.6
2019-05-17T07:28:34.692Z,981.62
2019-05-17T07:29:34.692Z,981.55
2019-05-17T07:30:34.703Z,981.6
2019-05-17T07:31:34.701Z,981.58
2019-05-17T07:32:34.710Z,981.56
2019-05-17T07:33:34.712Z,981.52
2019-05-17T07:34:34.714Z,981.55
2019-05-17T07:35:34.723Z,981.44
2019-05-17T07:36:34.729Z,981.45
2019-05-17T07:37:34.737Z,981.49
2019-05-17T07:38:34.786Z,981.42
2019-05-17T07:39:34.737Z,981.44
2019-05-17T07:40:34.744Z,981.42
2019-05-17T07:41:34.756Z,981.4
2019-05-17T07:42:34.757Z,981.43
2019-05-17T07:43:34.758Z,981.45
2019-05-17T07:44:34.768Z,981.42
2019-05-17T07:45:34.768Z,981.41
2019-05-17T07:46:34.780Z,981.4
2019-05-17T07:47:34.779Z,981.34
2019-05-17T07:48:34.786Z,981.35
2019-05-17T07:49:34.789Z,981.29
2019-05-17T07:50:34.806Z,981.27
2019-05-17T07:51:34.810Z,981.29
2019-05-17T07:52:34.808Z,981.28
2019-05-17T07:53:36.721Z,981.26
2019-05-17T07:54:34.816Z,981.23
2019-05-17T07:55:34.828Z,981.23
2019-05-17T07:56:34.825Z,981.22
2019-05-17T07:57:34.834Z,981.24
2019-05-17T07:58:34.838Z,981.23
2019-05-17T07:59:34.842Z,981.18
2019-05-17T08:00:34.847Z,981.18
2019-05-17T08:01:34.853Z,981.18
2019-05-17T08:02:34.860Z,981.19
2019-05-17T08:03:34.868Z,981.2
2019-05-17T08:04:34.871Z,981.17
2019-05-17T08:05:34.875Z,981.16
2019-05-17T08:06:34.890Z,981.19
2019-05-17T08:07:34.887Z,981.16
2019-05-17T08:08:34.893Z,981.15
2019-05-17T08:09:34.908Z,981.18
2019-05-17T08:10:34.905Z,981.17
2019-05-17T08:11:34.909Z,981.12
2019-05-17T08:12:34.912Z,981.12
2019-05-17T08:13:34.937Z,981.1
2019-05-17T08:14:34.925Z,981.12
2019-05-17T08:15:34.931Z,981.08
2019-05-17T08:16:34.938Z,981.05
2019-05-17T08:17:34.943Z,981.06
2019-05-17T08:18:34.947Z,981.02
2019-05-17T08:19:34.955Z,980.97
2019-05-17T08:20:34.969Z,980.95
2019-05-17T08:21:34.971Z,980.98
2019-05-17T08:22:34.973Z,980.96
2019-05-17T08:23:34.985Z,980.97
2019-05-17T08:24:34.986Z,981.01
2019-05-17T08:25:47.580Z,980.94
2019-05-17T08:26:34.993Z,980.96
2019-05-17T08:27:35.002Z,980.91
2019-05-17T08:28:35.004Z,980.93
2019-05-17T08:29:35.014Z,980.94
2019-05-17T08:30:35.019Z,980.92
2019-05-17T08:31:35.035Z,980.91
2019-05-17T08:32:35.030Z,980.92
2019-05-17T08:33:35.032Z,980.93
2019-05-17T08:34:35.046Z,980.9
2019-05-17T08:35:35.045Z,980.83
2019-05-17T08:36:35.050Z,980.89
2019-05-17T08:37:35.064Z,980.83
2019-05-17T08:38:35.062Z,980.81
2019-05-17T08:39:35.066Z,980.83
2019-05-17T08:40:35.073Z,980.81
2019-05-17T08:41:35.079Z,980.79
2019-05-17T08:42:35.086Z,980.81
2019-05-17T08:43:42.411Z,980.78
2019-05-17T08:44:35.099Z,980.79
2019-05-17T08:45:35.108Z,980.8
2019-05-17T08:46:35.108Z,980.77
2019-05-17T08:47:35.113Z,980.76
2019-05-17T08:48:35.119Z,980.76
2019-05-17T08:49:35.128Z,980.76
2019-05-17T08:50:35.130Z,980.78
2019-05-17T08:51:35.136Z,980.73
2019-05-17T08:52:35.139Z,980.71
2019-05-17T08:53:35.147Z,980.66
2019-05-17T08:54:36.003Z,980.67
2019-05-17T08:55:35.164Z,980.62
2019-05-17T08:56:35.163Z,980.61
2019-05-17T08:57:35.167Z,980.63
2019-05-17T08:58:35.175Z,980.59
2019-05-17T08:59:35.178Z,980.56
2019-05-17T09:00:35.184Z,980.53
2019-05-17T09:01:37.972Z,980.6
2019-05-17T09:02:35.193Z,980.52
2019-05-17T09:03:35.194Z,980.52
2019-05-17T09:04:35.199Z,980.47
2019-05-17T09:05:35.202Z,980.5
2019-05-17T09:06:35.226Z,980.5
2019-05-17T09:07:35.207Z,980.46
2019-05-17T09:08:35.214Z,980.46
2019-05-17T09:09:35.214Z,980.43
2019-05-17T09:10:35.233Z,980.42
2019-05-17T09:11:35.223Z,980.39
2019-05-17T09:12:35.220Z,980.39
2019-05-17T09:13:35.227Z,980.42
2019-05-17T09:14:35.227Z,980.39
2019-05-17T09:15:35.230Z,980.4
2019-05-17T09:16:35.233Z,980.4
2019-05-17T09:17:35.234Z,980.42
2019-05-17T09:18:35.241Z,980.39
2019-05-17T09:19:35.235Z,980.39
2019-05-17T09:20:35.239Z,980.33
2019-05-17T09:21:35.241Z,980.4
2019-05-17T09:22:35.241Z,980.31
2019-05-17T09:23:35.256Z,980.37
2019-05-17T09:24:35.250Z,980.4
2019-05-17T09:25:35.244Z,980.39
2019-05-17T09:26:35.313Z,980.39
2019-05-17T09:27:35.248Z,980.41
2019-05-17T09:28:35.248Z,980.36
2019-05-17T09:29:35.261Z,980.35
2019-05-17T09:30:35.253Z,980.35
2019-05-17T09:31:35.259Z,980.38
2019-05-17T09:32:35.253Z,980.34
2019-05-17T09:33:35.255Z,980.33
2019-05-17T09:34:35.256Z,980.41
2019-05-17T09:35:35.262Z,980.38
2019-05-17T09:36:35.256Z,980.36
2019-05-17T09:37:35.257Z,980.32
2019-05-17T09:38:35.297Z,980.33
2019-05-17T09:39:35.260Z,980.27
2019-05-17T09:40:35.267Z,980.22
2019-05-17T09:41:35.264Z,980.29
2019-05-17T09:42:35.271Z,980.21
2019-05-17T09:43:35.267Z,980.22
2019-05-17T09:44:35.265Z,980.18
2019-05-17T09:45:35.268Z,980.24
2019-05-17T09:46:35.272Z,980.2
2019-05-17T09:47:35.270Z,980.15
2019-05-17T09:48:35.278Z,980.12
2019-05-17T09:49:35.274Z,980.13
2019-05-17T09:50:35.272Z,980.16
2019-05-17T09:51:35.274Z,980.13
2019-05-17T09:52:35.285Z,980.18
2019-05-17T09:53:35.277Z,980.12
2019-05-17T09:54:42.191Z,980.14
2019-05-17T09:55:35.278Z,980.1
2019-05-17T09:56:35.286Z,980.08
2019-05-17T09:57:35.290Z,980.09
2019-05-17T09:58:35.286Z,980.05
2019-05-17T09:59:35.284Z,980.07
2019-05-17T10:00:35.291Z,980
2019-05-17T10:01:35.288Z,979.96
2019-05-17T10:02:35.296Z,980.01
2019-05-17T10:03:35.290Z,979.95
2019-05-17T10:04:35.297Z,979.96
2019-05-17T10:05:35.294Z,979.9
2019-05-17T10:06:35.297Z,979.95
2019-05-17T10:07:35.298Z,979.95
2019-05-17T10:08:35.299Z,979.95
2019-05-17T10:09:35.298Z,979.97
2019-05-17T10:10:35.305Z,979.91
2019-05-17T10:11:35.304Z,979.92
2019-05-17T10:12:35.308Z,979.91
2019-05-17T10:13:35.306Z,979.91
2019-05-17T10:14:35.311Z,979.92
2019-05-17T10:15:35.312Z,979.87
2019-05-17T10:16:35.308Z,979.85
2019-05-17T10:17:35.310Z,979.9
2019-05-17T10:18:35.312Z,979.86
2019-05-17T10:19:35.315Z,979.85
2019-05-17T10:20:35.318Z,979.83
2019-05-17T10:21:35.319Z,979.77
2019-05-17T10:22:35.321Z,979.79
2019-05-17T10:23:35.320Z,979.78
2019-05-17T10:24:38.787Z,979.78
2019-05-17T10:25:35.624Z,979.75
2019-05-17T10:26:35.323Z,979.81
2019-05-17T10:27:35.333Z,979.81
2019-05-17T10:28:35.326Z,979.75
2019-05-17T10:29:35.328Z,979.78
2019-05-17T10:30:35.337Z,979.8
2019-05-17T10:31:35.332Z,979.78
2019-05-17T10:32:35.333Z,979.74
2019-05-17T10:33:35.334Z,979.71
2019-05-17T10:34:35.337Z,979.74
2019-05-17T10:35:35.347Z,979.68
2019-05-17T10:36:35.342Z,979.71
2019-05-17T10:37:35.340Z,979.71
2019-05-17T10:38:35.341Z,979.72
2019-05-17T10:39:35.345Z,979.76
2019-05-17T10:40:35.347Z,979.78
2019-05-17T10:41:35.366Z,979.76
2019-05-17T10:42:35.351Z,979.73
2019-05-17T10:43:35.350Z,979.71
2019-05-17T10:44:44.162Z,979.7
2019-05-17T10:45:35.355Z,979.68
2019-05-17T10:46:35.356Z,979.67
2019-05-17T10:47:35.358Z,979.65
2019-05-17T10:48:35.361Z,979.64
2019-05-17T10:49:35.360Z,979.63
2019-05-17T10:50:35.368Z,979.62
2019-05-17T10:51:35.367Z,979.61
2019-05-17T10:52:35.369Z,979.59
2019-05-17T10:53:35.369Z,979.53
2019-05-17T10:54:35.375Z,979.58
2019-05-17T10:55:35.374Z,979.6
2019-05-17T10:56:35.380Z,979.56
2019-05-17T10:57:35.376Z,979.57
2019-05-17T10:58:35.384Z,979.56
2019-05-17T10:59:35.379Z,979.55
2019-05-17T11:00:35.381Z,979.55
2019-05-17T11:01:35.383Z,979.53
2019-05-17T11:02:35.384Z,979.54
2019-05-17T11:03:35.388Z,979.51
2019-05-17T11:04:35.396Z,979.48
2019-05-17T11:05:35.392Z,979.49
2019-05-17T11:06:35.427Z,979.44
2019-05-17T11:07:35.410Z,979.45
2019-05-17T11:08:35.420Z,979.46
2019-05-17T11:09:35.420Z,979.39
2019-05-17T11:10:35.408Z,979.38
2019-05-17T11:11:35.410Z,979.38
2019-05-17T11:12:35.410Z,979.37
2019-05-17T11:13:35.412Z,979.4
2019-05-17T11:14:48.865Z,979.4
2019-05-17T11:15:35.410Z,979.37
2019-05-17T11:16:35.415Z,979.36
2019-05-17T11:17:35.412Z,979.32
2019-05-17T11:18:35.414Z,979.34
2019-05-17T11:19:35.423Z,979.32
2019-05-17T11:20:35.420Z,979.35
2019-05-17T11:21:35.424Z,979.35
2019-05-17T11:22:35.421Z,979.35
2019-05-17T11:23:35.429Z,979.33
2019-05-17T11:24:35.428Z,979.35
2019-05-17T11:25:35.443Z,979.35
2019-05-17T11:26:35.428Z,979.34
2019-05-17T11:27:35.441Z,979.32
2019-05-17T11:28:35.457Z,979.29
2019-05-17T11:29:35.434Z,979.25
2019-05-17T11:30:35.440Z,979.31
2019-05-17T11:31:35.445Z,979.27
2019-05-17T11:32:35.436Z,979.3
2019-05-17T11:33:35.441Z,979.31
2019-05-17T11:34:35.458Z,979.26
2019-05-17T11:35:35.442Z,979.26
2019-05-17T11:36:35.447Z,979.24
2019-05-17T11:37:35.444Z,979.28
2019-05-17T11:38:35.485Z,979.24
2019-05-17T11:39:35.450Z,979.27
2019-05-17T11:40:35.454Z,979.26
2019-05-17T11:41:35.466Z,979.23
2019-05-17T11:42:35.463Z,979.24
2019-05-17T11:43:35.455Z,979.23
2019-05-17T11:44:35.458Z,979.23
2019-05-17T11:45:35.462Z,979.21
2019-05-17T11:46:36.555Z,979.19
2019-05-17T11:47:35.463Z,979.16
2019-05-17T11:48:35.464Z,979.18
2019-05-17T11:49:35.464Z,979.16
2019-05-17T11:50:35.468Z,979.13
2019-05-17T11:51:35.481Z,979.12
2019-05-17T11:52:35.478Z,979.13
2019-05-17T11:53:35.476Z,979.09
2019-05-17T11:54:35.474Z,979.09
2019-05-17T11:55:35.476Z,979.09
2019-05-17T11:56:35.573Z,979.07
2019-05-17T11:57:35.511Z,979.05
2019-05-17T11:58:35.497Z,979.07
2019-05-17T11:59:35.502Z,979.01
2019-05-17T12:00:35.500Z,979.03
2019-05-17T12:01:35.497Z,979.08
2019-05-17T12:02:35.497Z,979.08
2019-05-17T12:03:35.493Z,979.02
2019-05-17T12:04:35.500Z,979.11
2019-05-17T12:05:35.500Z,979.03
2019-05-17T12:06:35.501Z,979.05
2019-05-17T12:07:35.499Z,979.05
2019-05-17T12:08:35.502Z,979.07
2019-05-17T12:09:37.575Z,979.11
2019-05-17T12:10:35.669Z,979.05
2019-05-17T12:11:35.553Z,979.07
2019-05-17T12:12:35.508Z,978.98
2019-05-17T12:13:35.516Z,979.02
2019-05-17T12:14:35.515Z,979.03
2019-05-17T12:15:44.109Z,978.98
2019-05-17T12:16:35.514Z,978.98
2019-05-17T12:17:35.520Z,978.98
2019-05-17T12:18:35.519Z,978.96
2019-05-17T12:19:37.142Z,978.93
2019-05-17T12:20:35.520Z,978.92
2019-05-17T12:21:35.588Z,978.88
2019-05-17T12:22:35.537Z,978.92
2019-05-17T12:23:35.526Z,978.85
2019-05-17T12:24:35.526Z,978.86
2019-05-17T12:25:35.530Z,978.82
2019-05-17T12:26:35.582Z,978.83
2019-05-17T12:27:35.536Z,978.85
2019-05-17T12:28:35.538Z,978.8
2019-05-17T12:29:35.536Z,978.83
2019-05-17T12:30:35.538Z,978.79
2019-05-17T12:31:35.539Z,978.79